Terminal Aerodrome Forecast
Issued by NWS

Home | Current Version | Previous Version | Text Only | Print | Product List | Glossary Off
Versions: 1 2 3 4 5 6 7 8 9 10 11 12 13 14 15 16

000
FTUS43 KUNR 171300 AAA
TAFGCC
TAF AMD
KGCC 171321Z 1713/1812 15008KT 6SM BR OVC007
     FM171500 19013KT P6SM BKN150=

USA.gov is the U.S. government's official web portal to all federal, state and local government web resources and services.